sensor_id;sensor_type;location;lat;lon;timestamp;temperature;humidity
26909;DHT22;14477;51.038;4.588;2023-03-02T00:02:04;3.90;67.20
26909;DHT22;14477;51.038;4.588;2023-03-02T00:04:40;3.90;67.30
26909;DHT22;14477;51.038;4.588;2023-03-02T00:07:13;3.80;67.30
26909;DHT22;14477;51.038;4.588;2023-03-02T00:09:41;3.80;67.40
26909;DHT22;14477;51.038;4.588;2023-03-02T00:12:08;3.80;67.40
26909;DHT22;14477;51.038;4.588;2023-03-02T00:14:34;3.70;67.50
26909;DHT22;14477;51.038;4.588;2023-03-02T00:16:59;3.70;67.50
26909;DHT22;14477;51.038;4.588;2023-03-02T00:19:27;3.70;67.60
26909;DHT22;14477;51.038;4.588;2023-03-02T00:21:52;3.70;67.70
26909;DHT22;14477;51.038;4.588;2023-03-02T00:24:18;3.60;67.70
26909;DHT22;14477;51.038;4.588;2023-03-02T00:26:44;3.60;67.70
26909;DHT22;14477;51.038;4.588;2023-03-02T00:29:10;3.60;67.80
26909;DHT22;14477;51.038;4.588;2023-03-02T00:31:36;3.60;67.80
26909;DHT22;14477;51.038;4.588;2023-03-02T00:34:03;3.50;67.90
26909;DHT22;14477;51.038;4.588;2023-03-02T00:36:29;3.50;68.00
26909;DHT22;14477;51.038;4.588;2023-03-02T00:38:55;3.50;68.00
26909;DHT22;14477;51.038;4.588;2023-03-02T00:41:22;3.40;68.00
26909;DHT22;14477;51.038;4.588;2023-03-02T00:43:49;3.40;68.10
26909;DHT22;14477;51.038;4.588;2023-03-02T00:46:17;3.40;68.20
26909;DHT22;14477;51.038;4.588;2023-03-02T00:48:44;3.30;68.30
26909;DHT22;14477;51.038;4.588;2023-03-02T00:51:10;3.30;68.30
26909;DHT22;14477;51.038;4.588;2023-03-02T00:53:37;3.30;68.40
26909;DHT22;14477;51.038;4.588;2023-03-02T00:56:04;3.30;68.40
26909;DHT22;14477;51.038;4.588;2023-03-02T00:58:30;3.30;68.50
26909;DHT22;14477;51.038;4.588;2023-03-02T01:00:57;3.30;68.50
26909;DHT22;14477;51.038;4.588;2023-03-02T01:03:23;3.20;68.50
26909;DHT22;14477;51.038;4.588;2023-03-02T01:05:49;3.20;68.50
26909;DHT22;14477;51.038;4.588;2023-03-02T01:08:23;3.20;68.60
26909;DHT22;14477;51.038;4.588;2023-03-02T01:10:50;3.10;68.60
26909;DHT22;14477;51.038;4.588;2023-03-02T01:13:18;3.10;68.70
26909;DHT22;14477;51.038;4.588;2023-03-02T01:15:44;3.10;69.50
26909;DHT22;14477;51.038;4.588;2023-03-02T01:18:10;3.10;68.80
26909;DHT22;14477;51.038;4.588;2023-03-02T01:20:36;3.00;68.80
26909;DHT22;14477;51.038;4.588;2023-03-02T01:23:02;3.00;68.80
26909;DHT22;14477;51.038;4.588;2023-03-02T01:25:28;3.00;68.90
26909;DHT22;14477;51.038;4.588;2023-03-02T01:27:53;3.00;69.00
26909;DHT22;14477;51.038;4.588;2023-03-02T01:30:19;2.90;69.00
26909;DHT22;14477;51.038;4.588;2023-03-02T01:32:45;2.90;69.10
26909;DHT22;14477;51.038;4.588;2023-03-02T01:35:11;2.90;69.20
26909;DHT22;14477;51.038;4.588;2023-03-02T01:37:37;2.80;69.20
26909;DHT22;14477;51.038;4.588;2023-03-02T01:40:03;2.80;69.20
26909;DHT22;14477;51.038;4.588;2023-03-02T01:42:38;2.80;69.20
26909;DHT22;14477;51.038;4.588;2023-03-02T01:45:05;2.80;69.50
26909;DHT22;14477;51.038;4.588;2023-03-02T01:47:50;2.80;70.20
26909;DHT22;14477;51.038;4.588;2023-03-02T01:50:22;2.80;69.50
26909;DHT22;14477;51.038;4.588;2023-03-02T01:52:49;2.70;69.70
26909;DHT22;14477;51.038;4.588;2023-03-02T01:55:19;2.70;69.60
26909;DHT22;14477;51.038;4.588;2023-03-02T01:57:48;2.70;69.70
26909;DHT22;14477;51.038;4.588;2023-03-02T02:00:22;2.70;69.80
26909;DHT22;14477;51.038;4.588;2023-03-02T02:02:50;2.60;69.90
26909;DHT22;14477;51.038;4.588;2023-03-02T02:05:21;2.60;69.80
26909;DHT22;14477;51.038;4.588;2023-03-02T02:07:47;2.60;69.90
26909;DHT22;14477;51.038;4.588;2023-03-02T02:10:13;2.60;69.90
26909;DHT22;14477;51.038;4.588;2023-03-02T02:12:39;2.60;70.00
26909;DHT22;14477;51.038;4.588;2023-03-02T02:15:06;2.50;70.00
26909;DHT22;14477;51.038;4.588;2023-03-02T02:17:32;2.50;70.10
26909;DHT22;14477;51.038;4.588;2023-03-02T02:20:04;2.50;70.10
26909;DHT22;14477;51.038;4.588;2023-03-02T02:23:01;2.50;70.30
26909;DHT22;14477;51.038;4.588;2023-03-02T02:28:21;2.40;70.60
26909;DHT22;14477;51.038;4.588;2023-03-02T02:31:03;2.40;70.60
26909;DHT22;14477;51.038;4.588;2023-03-02T02:33:31;2.40;70.70
26909;DHT22;14477;51.038;4.588;2023-03-02T02:36:05;2.40;70.70
26909;DHT22;14477;51.038;4.588;2023-03-02T02:38:31;2.40;71.00
26909;DHT22;14477;51.038;4.588;2023-03-02T02:41:00;2.40;70.90
26909;DHT22;14477;51.038;4.588;2023-03-02T02:43:28;2.40;71.10
26909;DHT22;14477;51.038;4.588;2023-03-02T02:45:56;2.30;71.20
26909;DHT22;14477;51.038;4.588;2023-03-02T02:48:24;2.30;71.20
26909;DHT22;14477;51.038;4.588;2023-03-02T02:50:52;2.30;71.20
26909;DHT22;14477;51.038;4.588;2023-03-02T02:53:43;2.30;71.20
26909;DHT22;14477;51.038;4.588;2023-03-02T02:56:13;2.30;72.30
26909;DHT22;14477;51.038;4.588;2023-03-02T02:58:46;2.30;71.30
26909;DHT22;14477;51.038;4.588;2023-03-02T03:01:15;2.30;71.50
26909;DHT22;14477;51.038;4.588;2023-03-02T03:03:51;2.30;71.40
26909;DHT22;14477;51.038;4.588;2023-03-02T03:06:21;2.20;71.40
26909;DHT22;14477;51.038;4.588;2023-03-02T03:08:51;2.20;71.40
26909;DHT22;14477;51.038;4.588;2023-03-02T03:11:20;2.20;71.40
26909;DHT22;14477;51.038;4.588;2023-03-02T03:14:09;2.20;71.40
26909;DHT22;14477;51.038;4.588;2023-03-02T03:16:37;2.20;71.60
26909;DHT22;14477;51.038;4.588;2023-03-02T03:19:27;2.20;71.40
26909;DHT22;14477;51.038;4.588;2023-03-02T03:21:56;2.20;71.90
26909;DHT22;14477;51.038;4.588;2023-03-02T03:24:23;2.10;71.40
26909;DHT22;14477;51.038;4.588;2023-03-02T03:26:49;2.10;71.40
26909;DHT22;14477;51.038;4.588;2023-03-02T03:29:16;2.10;71.40
26909;DHT22;14477;51.038;4.588;2023-03-02T03:31:43;2.10;71.60
26909;DHT22;14477;51.038;4.588;2023-03-02T03:34:09;2.10;71.60
26909;DHT22;14477;51.038;4.588;2023-03-02T03:36:35;2.10;71.80
26909;DHT22;14477;51.038;4.588;2023-03-02T03:39:02;2.00;71.70
26909;DHT22;14477;51.038;4.588;2023-03-02T03:41:28;2.00;71.80
26909;DHT22;14477;51.038;4.588;2023-03-02T03:43:54;2.00;71.90
26909;DHT22;14477;51.038;4.588;2023-03-02T03:46:20;2.00;72.40
26909;DHT22;14477;51.038;4.588;2023-03-02T03:48:46;1.90;72.00
26909;DHT22;14477;51.038;4.588;2023-03-02T03:51:12;1.90;72.00
26909;DHT22;14477;51.038;4.588;2023-03-02T03:53:38;1.90;72.10
26909;DHT22;14477;51.038;4.588;2023-03-02T03:56:04;1.90;72.90
26909;DHT22;14477;51.038;4.588;2023-03-02T03:58:30;1.90;72.20
26909;DHT22;14477;51.038;4.588;2023-03-02T04:00:56;1.90;72.40
26909;DHT22;14477;51.038;4.588;2023-03-02T04:03:22;1.90;72.60
26909;DHT22;14477;51.038;4.588;2023-03-02T04:05:50;1.80;72.60
26909;DHT22;14477;51.038;4.588;2023-03-02T04:08:16;1.90;72.60
26909;DHT22;14477;51.038;4.588;2023-03-02T04:10:42;1.80;72.60
26909;DHT22;14477;51.038;4.588;2023-03-02T04:13:08;1.80;72.60
26909;DHT22;14477;51.038;4.588;2023-03-02T04:15:34;1.80;72.60
26909;DHT22;14477;51.038;4.588;2023-03-02T04:18:00;1.80;72.60
26909;DHT22;14477;51.038;4.588;2023-03-02T04:20:27;1.80;72.70
26909;DHT22;14477;51.038;4.588;2023-03-02T04:22:54;1.80;72.70
26909;DHT22;14477;51.038;4.588;2023-03-02T04:25:22;1.80;72.80
26909;DHT22;14477;51.038;4.588;2023-03-02T04:27:50;1.80;72.90
26909;DHT22;14477;51.038;4.588;2023-03-02T04:30:19;1.80;72.80
26909;DHT22;14477;51.038;4.588;2023-03-02T04:32:45;1.70;72.70
26909;DHT22;14477;51.038;4.588;2023-03-02T04:35:12;1.70;72.90
26909;DHT22;14477;51.038;4.588;2023-03-02T04:37:39;1.70;72.80
26909;DHT22;14477;51.038;4.588;2023-03-02T04:40:05;1.70;73.60
26909;DHT22;14477;51.038;4.588;2023-03-02T04:42:31;1.70;72.90
26909;DHT22;14477;51.038;4.588;2023-03-02T04:44:57;1.70;72.90
26909;DHT22;14477;51.038;4.588;2023-03-02T04:47:23;1.70;73.00
26909;DHT22;14477;51.038;4.588;2023-03-02T04:49:49;1.70;73.00
26909;DHT22;14477;51.038;4.588;2023-03-02T04:52:19;1.60;73.00
26909;DHT22;14477;51.038;4.588;2023-03-02T04:54:45;1.60;73.00
26909;DHT22;14477;51.038;4.588;2023-03-02T04:57:11;1.60;73.00
26909;DHT22;14477;51.038;4.588;2023-03-02T04:59:37;1.60;73.10
26909;DHT22;14477;51.038;4.588;2023-03-02T05:02:03;1.60;73.20
26909;DHT22;14477;51.038;4.588;2023-03-02T05:04:29;1.60;73.20
26909;DHT22;14477;51.038;4.588;2023-03-02T05:06:56;1.60;73.30
26909;DHT22;14477;51.038;4.588;2023-03-02T05:09:23;1.60;73.40
26909;DHT22;14477;51.038;4.588;2023-03-02T05:11:57;1.50;73.30
26909;DHT22;14477;51.038;4.588;2023-03-02T05:14:24;1.50;73.40
26909;DHT22;14477;51.038;4.588;2023-03-02T05:16:50;1.50;73.30
26909;DHT22;14477;51.038;4.588;2023-03-02T05:19:16;1.50;73.50
26909;DHT22;14477;51.038;4.588;2023-03-02T05:21:42;1.50;73.50
26909;DHT22;14477;51.038;4.588;2023-03-02T05:24:09;1.40;73.50
26909;DHT22;14477;51.038;4.588;2023-03-02T05:26:35;1.40;73.60
26909;DHT22;14477;51.038;4.588;2023-03-02T05:29:01;1.40;73.60
26909;DHT22;14477;51.038;4.588;2023-03-02T05:31:39;1.40;73.70
26909;DHT22;14477;51.038;4.588;2023-03-02T05:34:08;1.40;74.00
26909;DHT22;14477;51.038;4.588;2023-03-02T05:36:35;1.50;74.00
26909;DHT22;14477;51.038;4.588;2023-03-02T05:39:03;1.40;73.80
26909;DHT22;14477;51.038;4.588;2023-03-02T05:41:28;1.40;73.80
26909;DHT22;14477;51.038;4.588;2023-03-02T05:43:54;1.40;73.90
26909;DHT22;14477;51.038;4.588;2023-03-02T05:46:20;1.40;74.00
26909;DHT22;14477;51.038;4.588;2023-03-02T05:48:46;1.40;74.10
26909;DHT22;14477;51.038;4.588;2023-03-02T05:51:12;1.30;74.10
26909;DHT22;14477;51.038;4.588;2023-03-02T05:53:38;1.40;74.20
26909;DHT22;14477;51.038;4.588;2023-03-02T05:56:04;1.30;74.20
26909;DHT22;14477;51.038;4.588;2023-03-02T05:58:30;1.40;74.30
26909;DHT22;14477;51.038;4.588;2023-03-02T06:00:56;1.30;74.30
26909;DHT22;14477;51.038;4.588;2023-03-02T06:03:21;1.30;74.30
26909;DHT22;14477;51.038;4.588;2023-03-02T06:05:47;1.30;74.30
26909;DHT22;14477;51.038;4.588;2023-03-02T06:08:16;1.30;74.30
26909;DHT22;14477;51.038;4.588;2023-03-02T06:10:42;1.30;74.40
26909;DHT22;14477;51.038;4.588;2023-03-02T06:13:08;1.30;74.40
26909;DHT22;14477;51.038;4.588;2023-03-02T06:15:34;1.30;74.40
26909;DHT22;14477;51.038;4.588;2023-03-02T06:18:00;1.30;74.50
26909;DHT22;14477;51.038;4.588;2023-03-02T06:20:26;1.30;74.40
26909;DHT22;14477;51.038;4.588;2023-03-02T06:22:51;1.30;74.50
26909;DHT22;14477;51.038;4.588;2023-03-02T06:25:20;1.30;74.50
26909;DHT22;14477;51.038;4.588;2023-03-02T06:27:47;1.30;74.60
26909;DHT22;14477;51.038;4.588;2023-03-02T06:32:42;1.20;74.50
26909;DHT22;14477;51.038;4.588;2023-03-02T06:35:09;1.20;74.60
26909;DHT22;14477;51.038;4.588;2023-03-02T06:37:35;1.20;74.70
26909;DHT22;14477;51.038;4.588;2023-03-02T06:40:01;1.20;74.80
26909;DHT22;14477;51.038;4.588;2023-03-02T06:42:27;1.30;75.00
26909;DHT22;14477;51.038;4.588;2023-03-02T06:44:53;1.20;75.00
26909;DHT22;14477;51.038;4.588;2023-03-02T06:47:22;1.30;75.00
26909;DHT22;14477;51.038;4.588;2023-03-02T06:49:48;1.30;75.30
26909;DHT22;14477;51.038;4.588;2023-03-02T06:52:15;1.30;75.30
26909;DHT22;14477;51.038;4.588;2023-03-02T06:54:41;1.30;75.30
26909;DHT22;14477;51.038;4.588;2023-03-02T06:57:07;1.30;75.40
26909;DHT22;14477;51.038;4.588;2023-03-02T06:59:33;1.40;75.50
26909;DHT22;14477;51.038;4.588;2023-03-02T07:01:59;1.40;75.60
26909;DHT22;14477;51.038;4.588;2023-03-02T07:04:25;1.40;75.70
26909;DHT22;14477;51.038;4.588;2023-03-02T07:06:53;1.40;75.80
26909;DHT22;14477;51.038;4.588;2023-03-02T07:09:18;1.50;76.00
26909;DHT22;14477;51.038;4.588;2023-03-02T07:11:44;1.50;76.30
26909;DHT22;14477;51.038;4.588;2023-03-02T07:14:10;1.60;76.50
26909;DHT22;14477;51.038;4.588;2023-03-02T07:16:36;1.70;77.00
26909;DHT22;14477;51.038;4.588;2023-03-02T07:19:01;1.80;77.50
26909;DHT22;14477;51.038;4.588;2023-03-02T07:21:27;2.00;78.10
26909;DHT22;14477;51.038;4.588;2023-03-02T07:23:53;2.20;78.40
26909;DHT22;14477;51.038;4.588;2023-03-02T07:26:19;2.50;78.70
26909;DHT22;14477;51.038;4.588;2023-03-02T07:28:44;2.70;79.00
26909;DHT22;14477;51.038;4.588;2023-03-02T07:31:11;3.00;79.60
26909;DHT22;14477;51.038;4.588;2023-03-02T07:33:38;3.30;79.80
26909;DHT22;14477;51.038;4.588;2023-03-02T07:36:05;3.60;79.70
26909;DHT22;14477;51.038;4.588;2023-03-02T07:38:31;3.90;79.40
26909;DHT22;14477;51.038;4.588;2023-03-02T07:40:57;4.10;79.20
26909;DHT22;14477;51.038;4.588;2023-03-02T07:43:24;4.30;79.30
26909;DHT22;14477;51.038;4.588;2023-03-02T07:45:51;4.50;79.60
26909;DHT22;14477;51.038;4.588;2023-03-02T07:48:17;4.80;80.40
26909;DHT22;14477;51.038;4.588;2023-03-02T07:50:44;5.20;81.30
26909;DHT22;14477;51.038;4.588;2023-03-02T07:53:11;5.50;82.10
26909;DHT22;14477;51.038;4.588;2023-03-02T07:55:42;6.00;82.70
26909;DHT22;14477;51.038;4.588;2023-03-02T07:58:08;6.50;82.60
26909;DHT22;14477;51.038;4.588;2023-03-02T08:00:34;6.90;83.50
26909;DHT22;14477;51.038;4.588;2023-03-02T08:03:01;7.40;83.80
26909;DHT22;14477;51.038;4.588;2023-03-02T08:05:27;7.80;83.90
26909;DHT22;14477;51.038;4.588;2023-03-02T08:07:52;8.30;84.00
26909;DHT22;14477;51.038;4.588;2023-03-02T08:10:18;8.70;83.40
26909;DHT22;14477;51.038;4.588;2023-03-02T08:12:44;9.10;83.30
26909;DHT22;14477;51.038;4.588;2023-03-02T08:15:10;9.50;83.50
26909;DHT22;14477;51.038;4.588;2023-03-02T08:17:36;9.90;82.20
26909;DHT22;14477;51.038;4.588;2023-03-02T08:20:02;10.20;82.20
26909;DHT22;14477;51.038;4.588;2023-03-02T08:22:29;10.50;81.80
26909;DHT22;14477;51.038;4.588;2023-03-02T08:24:54;10.80;81.70
26909;DHT22;14477;51.038;4.588;2023-03-02T08:27:20;11.10;81.50
26909;DHT22;14477;51.038;4.588;2023-03-02T08:29:46;11.30;80.50
26909;DHT22;14477;51.038;4.588;2023-03-02T08:32:12;11.60;79.70
26909;DHT22;14477;51.038;4.588;2023-03-02T08:34:38;11.80;80.10
26909;DHT22;14477;51.038;4.588;2023-03-02T08:37:04;11.90;78.90
26909;DHT22;14477;51.038;4.588;2023-03-02T08:39:29;12.00;78.00
26909;DHT22;14477;51.038;4.588;2023-03-02T08:41:56;12.00;77.30
26909;DHT22;14477;51.038;4.588;2023-03-02T08:44:22;12.00;76.20
26909;DHT22;14477;51.038;4.588;2023-03-02T08:46:49;12.00;76.80
26909;DHT22;14477;51.038;4.588;2023-03-02T08:49:16;11.90;75.10
26909;DHT22;14477;51.038;4.588;2023-03-02T08:51:42;11.90;76.00
26909;DHT22;14477;51.038;4.588;2023-03-02T08:54:08;11.90;76.00
26909;DHT22;14477;51.038;4.588;2023-03-02T08:56:36;11.90;75.80
26909;DHT22;14477;51.038;4.588;2023-03-02T08:59:05;11.90;75.40
26909;DHT22;14477;51.038;4.588;2023-03-02T09:01:33;11.80;74.90
26909;DHT22;14477;51.038;4.588;2023-03-02T09:04:00;11.80;75.00
26909;DHT22;14477;51.038;4.588;2023-03-02T09:06:27;11.80;75.70
26909;DHT22;14477;51.038;4.588;2023-03-02T09:08:54;11.90;76.60
26909;DHT22;14477;51.038;4.588;2023-03-02T09:11:20;12.10;77.70
26909;DHT22;14477;51.038;4.588;2023-03-02T09:13:46;12.30;78.10
26909;DHT22;14477;51.038;4.588;2023-03-02T09:16:13;12.60;78.60
26909;DHT22;14477;51.038;4.588;2023-03-02T09:18:39;12.80;77.60
26909;DHT22;14477;51.038;4.588;2023-03-02T09:21:05;13.10;77.80
26909;DHT22;14477;51.038;4.588;2023-03-02T09:23:32;13.40;78.20
26909;DHT22;14477;51.038;4.588;2023-03-02T09:25:58;13.70;77.80
26909;DHT22;14477;51.038;4.588;2023-03-02T09:28:24;14.00;77.60
26909;DHT22;14477;51.038;4.588;2023-03-02T09:30:52;14.30;77.20
26909;DHT22;14477;51.038;4.588;2023-03-02T09:33:19;14.60;76.80
26909;DHT22;14477;51.038;4.588;2023-03-02T09:35:45;14.90;77.50
26909;DHT22;14477;51.038;4.588;2023-03-02T09:38:12;15.20;77.50
26909;DHT22;14477;51.038;4.588;2023-03-02T09:40:55;15.60;76.90
26909;DHT22;14477;51.038;4.588;2023-03-02T09:43:30;15.90;74.00
26909;DHT22;14477;51.038;4.588;2023-03-02T09:46:19;16.10;76.10
26909;DHT22;14477;51.038;4.588;2023-03-02T09:51:52;16.50;69.50
26909;DHT22;14477;51.038;4.588;2023-03-02T09:54:23;16.70;73.00
26909;DHT22;14477;51.038;4.588;2023-03-02T09:56:52;17.00;74.50
26909;DHT22;14477;51.038;4.588;2023-03-02T09:59:32;17.20;72.50
26909;DHT22;14477;51.038;4.588;2023-03-02T10:02:27;17.30;71.20
26909;DHT22;14477;51.038;4.588;2023-03-02T10:04:56;17.60;68.50
26909;DHT22;14477;51.038;4.588;2023-03-02T10:07:29;17.80;72.20
26909;DHT22;14477;51.038;4.588;2023-03-02T10:10:24;18.00;69.00
26909;DHT22;14477;51.038;4.588;2023-03-02T10:21:09;18.70;68.20
26909;DHT22;14477;51.038;4.588;2023-03-02T10:24:29;18.90;67.80
26909;DHT22;14477;51.038;4.588;2023-03-02T10:26:51;19.10;65.40
26909;DHT22;14477;51.038;4.588;2023-03-02T10:32:23;19.60;63.90
26909;DHT22;14477;51.038;4.588;2023-03-02T10:34:50;19.90;65.60
26909;DHT22;14477;51.038;4.588;2023-03-02T10:37:28;20.10;68.60
26909;DHT22;14477;51.038;4.588;2023-03-02T10:39:55;20.20;65.90
26909;DHT22;14477;51.038;4.588;2023-03-02T10:42:30;20.30;66.90
26909;DHT22;14477;51.038;4.588;2023-03-02T10:47:47;20.60;64.70
26909;DHT22;14477;51.038;4.588;2023-03-02T10:50:23;20.60;65.50
26909;DHT22;14477;51.038;4.588;2023-03-02T10:52:49;20.70;65.20
26909;DHT22;14477;51.038;4.588;2023-03-02T10:55:16;20.90;65.20
26909;DHT22;14477;51.038;4.588;2023-03-02T10:57:43;21.10;65.90
26909;DHT22;14477;51.038;4.588;2023-03-02T11:00:22;21.30;65.30
26909;DHT22;14477;51.038;4.588;2023-03-02T11:02:53;21.50;59.60
26909;DHT22;14477;51.038;4.588;2023-03-02T11:05:37;21.60;62.20
26909;DHT22;14477;51.038;4.588;2023-03-02T11:08:16;21.70;57.20
26909;DHT22;14477;51.038;4.588;2023-03-02T11:10:58;21.90;58.30
26909;DHT22;14477;51.038;4.588;2023-03-02T11:13:34;22.00;59.00
26909;DHT22;14477;51.038;4.588;2023-03-02T11:16:02;22.20;60.00
26909;DHT22;14477;51.038;4.588;2023-03-02T11:18:42;22.40;61.60
26909;DHT22;14477;51.038;4.588;2023-03-02T11:21:32;22.60;60.10
26909;DHT22;14477;51.038;4.588;2023-03-02T11:27:05;22.90;55.90
26909;DHT22;14477;51.038;4.588;2023-03-02T11:29:39;23.10;58.30
26909;DHT22;14477;51.038;4.588;2023-03-02T11:34:57;23.20;55.60
26909;DHT22;14477;51.038;4.588;2023-03-02T11:37:39;23.00;56.00
26909;DHT22;14477;51.038;4.588;2023-03-02T11:42:47;23.00;57.90
26909;DHT22;14477;51.038;4.588;2023-03-02T11:47:41;23.10;57.20
26909;DHT22;14477;51.038;4.588;2023-03-02T11:50:12;23.10;55.90
26909;DHT22;14477;51.038;4.588;2023-03-02T11:52:45;23.10;55.70
26909;DHT22;14477;51.038;4.588;2023-03-02T11:55:21;23.10;55.00
26909;DHT22;14477;51.038;4.588;2023-03-02T11:57:58;23.10;56.10
26909;DHT22;14477;51.038;4.588;2023-03-02T12:00:35;23.10;54.10
26909;DHT22;14477;51.038;4.588;2023-03-02T12:06:03;23.10;53.10
26909;DHT22;14477;51.038;4.588;2023-03-02T12:08:37;23.10;47.00
26909;DHT22;14477;51.038;4.588;2023-03-02T12:14:26;23.10;54.90
26909;DHT22;14477;51.038;4.588;2023-03-02T12:16:40;23.30;54.20
26909;DHT22;14477;51.038;4.588;2023-03-02T12:19:26;23.40;53.10
26909;DHT22;14477;51.038;4.588;2023-03-02T12:21:59;23.50;50.60
26909;DHT22;14477;51.038;4.588;2023-03-02T12:24:31;23.70;53.60
26909;DHT22;14477;51.038;4.588;2023-03-02T12:29:44;23.90;51.20
26909;DHT22;14477;51.038;4.588;2023-03-02T12:35:10;24.10;51.60
26909;DHT22;14477;51.038;4.588;2023-03-02T12:37:55;24.10;50.30
26909;DHT22;14477;51.038;4.588;2023-03-02T12:48:56;23.90;49.40
26909;DHT22;14477;51.038;4.588;2023-03-02T12:51:25;23.90;49.30
26909;DHT22;14477;51.038;4.588;2023-03-02T12:54:10;23.90;50.50
26909;DHT22;14477;51.038;4.588;2023-03-02T12:56:36;23.90;48.50
26909;DHT22;14477;51.038;4.588;2023-03-02T12:59:02;23.80;50.20
26909;DHT22;14477;51.038;4.588;2023-03-02T13:01:30;23.70;50.20
26909;DHT22;14477;51.038;4.588;2023-03-02T13:03:57;23.80;50.20
26909;DHT22;14477;51.038;4.588;2023-03-02T13:06:26;23.90;50.60
26909;DHT22;14477;51.038;4.588;2023-03-02T13:08:56;23.90;48.00
26909;DHT22;14477;51.038;4.588;2023-03-02T13:11:33;24.00;49.20
26909;DHT22;14477;51.038;4.588;2023-03-02T13:14:01;24.00;46.80
26909;DHT22;14477;51.038;4.588;2023-03-02T13:16:41;24.10;49.60
26909;DHT22;14477;51.038;4.588;2023-03-02T13:19:13;24.20;50.30
26909;DHT22;14477;51.038;4.588;2023-03-02T13:21:41;24.30;48.90
26909;DHT22;14477;51.038;4.588;2023-03-02T13:24:30;24.30;49.50
26909;DHT22;14477;51.038;4.588;2023-03-02T13:27:13;24.40;46.60
26909;DHT22;14477;51.038;4.588;2023-03-02T13:29:40;24.40;48.90
26909;DHT22;14477;51.038;4.588;2023-03-02T13:34:56;24.50;46.70
26909;DHT22;14477;51.038;4.588;2023-03-02T13:39:59;24.60;47.30
26909;DHT22;14477;51.038;4.588;2023-03-02T13:42:38;24.70;48.40
26909;DHT22;14477;51.038;4.588;2023-03-02T13:45:24;24.70;43.70
26909;DHT22;14477;51.038;4.588;2023-03-02T13:47:52;24.70;47.00
26909;DHT22;14477;51.038;4.588;2023-03-02T13:50:23;24.60;47.60
26909;DHT22;14477;51.038;4.588;2023-03-02T13:52:51;24.60;46.80
26909;DHT22;14477;51.038;4.588;2023-03-02T13:55:19;24.40;47.00
26909;DHT22;14477;51.038;4.588;2023-03-02T13:57:47;24.40;46.30
26909;DHT22;14477;51.038;4.588;2023-03-02T14:00:17;24.30;46.20
26909;DHT22;14477;51.038;4.588;2023-03-02T14:02:44;24.20;45.90
26909;DHT22;14477;51.038;4.588;2023-03-02T14:05:22;24.10;46.20
26909;DHT22;14477;51.038;4.588;2023-03-02T14:07:49;23.90;44.60
26909;DHT22;14477;51.038;4.588;2023-03-02T14:10:16;23.70;45.50
26909;DHT22;14477;51.038;4.588;2023-03-02T14:12:56;23.60;45.40
26909;DHT22;14477;51.038;4.588;2023-03-02T14:15:23;23.50;44.80
26909;DHT22;14477;51.038;4.588;2023-03-02T14:17:49;23.30;45.40
26909;DHT22;14477;51.038;4.588;2023-03-02T14:20:20;23.20;45.30
26909;DHT22;14477;51.038;4.588;2023-03-02T14:22:46;23.00;44.40
26909;DHT22;14477;51.038;4.588;2023-03-02T14:25:13;22.90;45.50
26909;DHT22;14477;51.038;4.588;2023-03-02T14:27:39;22.70;45.20
26909;DHT22;14477;51.038;4.588;2023-03-02T14:30:19;22.60;45.60
26909;DHT22;14477;51.038;4.588;2023-03-02T14:32:45;22.60;43.90
26909;DHT22;14477;51.038;4.588;2023-03-02T14:35:12;22.40;45.90
26909;DHT22;14477;51.038;4.588;2023-03-02T14:37:42;22.30;45.10
26909;DHT22;14477;51.038;4.588;2023-03-02T14:40:29;22.10;45.20
26909;DHT22;14477;51.038;4.588;2023-03-02T14:42:54;22.00;44.00
26909;DHT22;14477;51.038;4.588;2023-03-02T14:45:20;21.90;46.20
26909;DHT22;14477;51.038;4.588;2023-03-02T14:47:47;21.80;45.90
26909;DHT22;14477;51.038;4.588;2023-03-02T14:50:13;21.70;46.10
26909;DHT22;14477;51.038;4.588;2023-03-02T14:52:44;21.70;45.00
26909;DHT22;14477;51.038;4.588;2023-03-02T14:55:24;21.50;44.80
26909;DHT22;14477;51.038;4.588;2023-03-02T14:57:58;21.40;44.00
26909;DHT22;14477;51.038;4.588;2023-03-02T15:00:24;21.20;44.70
26909;DHT22;14477;51.038;4.588;2023-03-02T15:02:50;20.90;45.70
26909;DHT22;14477;51.038;4.588;2023-03-02T15:05:17;20.90;45.90
26909;DHT22;14477;51.038;4.588;2023-03-02T15:07:43;20.80;45.90
26909;DHT22;14477;51.038;4.588;2023-03-02T15:10:16;20.60;45.90
26909;DHT22;14477;51.038;4.588;2023-03-02T15:12:42;20.60;45.60
26909;DHT22;14477;51.038;4.588;2023-03-02T15:15:09;20.50;45.80
26909;DHT22;14477;51.038;4.588;2023-03-02T15:17:35;20.40;45.80
26909;DHT22;14477;51.038;4.588;2023-03-02T15:20:01;20.30;45.30
26909;DHT22;14477;51.038;4.588;2023-03-02T15:22:27;20.10;46.30
26909;DHT22;14477;51.038;4.588;2023-03-02T15:24:53;19.90;45.40
26909;DHT22;14477;51.038;4.588;2023-03-02T15:27:19;19.70;45.30
26909;DHT22;14477;51.038;4.588;2023-03-02T15:29:47;19.50;45.60
26909;DHT22;14477;51.038;4.588;2023-03-02T15:32:13;19.30;46.00
26909;DHT22;14477;51.038;4.588;2023-03-02T15:34:39;19.20;45.90
26909;DHT22;14477;51.038;4.588;2023-03-02T15:37:05;19.10;46.40
26909;DHT22;14477;51.038;4.588;2023-03-02T15:39:31;18.90;46.40
26909;DHT22;14477;51.038;4.588;2023-03-02T15:41:57;18.80;46.60
26909;DHT22;14477;51.038;4.588;2023-03-02T15:44:23;18.60;46.70
26909;DHT22;14477;51.038;4.588;2023-03-02T15:46:52;18.50;47.00
26909;DHT22;14477;51.038;4.588;2023-03-02T15:49:18;18.40;46.30
26909;DHT22;14477;51.038;4.588;2023-03-02T15:51:53;18.20;46.90
26909;DHT22;14477;51.038;4.588;2023-03-02T15:54:20;18.10;46.90
26909;DHT22;14477;51.038;4.588;2023-03-02T15:56:47;18.00;47.10
26909;DHT22;14477;51.038;4.588;2023-03-02T15:59:20;17.90;47.40
26909;DHT22;14477;51.038;4.588;2023-03-02T16:01:46;17.80;47.30
26909;DHT22;14477;51.038;4.588;2023-03-02T16:04:11;17.70;47.20
26909;DHT22;14477;51.038;4.588;2023-03-02T16:06:37;17.60;47.20
26909;DHT22;14477;51.038;4.588;2023-03-02T16:09:03;17.40;47.40
26909;DHT22;14477;51.038;4.588;2023-03-02T16:11:29;17.30;47.70
26909;DHT22;14477;51.038;4.588;2023-03-02T16:13:55;17.10;47.90
26909;DHT22;14477;51.038;4.588;2023-03-02T16:16:21;17.00;48.10
26909;DHT22;14477;51.038;4.588;2023-03-02T16:18:55;16.90;48.00
26909;DHT22;14477;51.038;4.588;2023-03-02T16:21:22;16.70;47.50
26909;DHT22;14477;51.038;4.588;2023-03-02T16:23:48;16.60;48.20
26909;DHT22;14477;51.038;4.588;2023-03-02T16:26:16;16.50;48.30
26909;DHT22;14477;51.038;4.588;2023-03-02T16:28:46;16.30;48.50
26909;DHT22;14477;51.038;4.588;2023-03-02T16:31:15;16.20;48.60
26909;DHT22;14477;51.038;4.588;2023-03-02T16:33:42;16.10;48.70
26909;DHT22;14477;51.038;4.588;2023-03-02T16:36:09;16.10;48.60
26909;DHT22;14477;51.038;4.588;2023-03-02T16:38:36;15.90;48.70
26909;DHT22;14477;51.038;4.588;2023-03-02T16:41:18;15.80;48.70
26909;DHT22;14477;51.038;4.588;2023-03-02T16:43:48;15.70;48.30
26909;DHT22;14477;51.038;4.588;2023-03-02T16:46:14;15.60;48.80
26909;DHT22;14477;51.038;4.588;2023-03-02T16:48:41;15.50;48.80
26909;DHT22;14477;51.038;4.588;2023-03-02T16:51:07;15.40;49.10